EBAW

EBAW 050750Z 23013G23KT 190V260 6000 -DZ FEW006 BKN013 18/16 Q1012 TEMPO 4000 DZ

TAF TAF EBAW 251700Z 2518/2606 11007KT CAVOK PROB30 TEMPO 2518/2520 VRB15G30KT 3500 SHRA TSRA

EHWO

EHWO 050755Z AUTO 23014G25KT 200V270 9999 FEW007 BKN010 OVC013 18/16 Q1011 GRN

TAF EHWO 030812Z 0309/0321 24012KT 9999 BKN012 BECMG 0309/0311 BKN015 BECMG 0311/0313 SCT020

EBBL

EBBL 050755Z AUTO 23017G28KT 9999 OVC020/// 20/16 Q1012 WHT

TAF TAF EBBL 041541Z 0419/0507 22010G22KT 9999 BKN020 TEMPO 0419/0501 8000 -RA BKN013 BECMG 0500/0502 BKN013 TEMPO 0502/0507 SCT005 BKN010

Always consult the official METAR resources.